Time;durP1;ratioP1;P1;durP2;ratioP2;P2;SDS_P1;SDS_P2;PMS_P1;PMS_P2;Temp;Humidity;BMP_temperature;BMP_pressure;BME280_temperature;BME280_humidity;BME280_pressure;Samples;Min_cycle;Max_cycle;Signal;HPM_P1;HPM_P2
2023/01/09 00:00:21;;;;;;;;;;;;;;;5.95;96.84;99348.50;5081354;28;19920;-61
2023/01/09 00:02:46;;;;;;;;;;;;;;;5.92;97.09;99344.41;5085456;28;19916;-60
2023/01/09 00:05:13;;;;;;;;;;;;;;;5.90;96.70;99344.59;5082741;28;19916;-61
2023/01/09 00:07:38;;;;;;;;;;;;;;;5.88;96.85;99348.38;5083397;28;20564;-60
2023/01/09 00:10:03;;;;;;;;;;;;;;;5.85;97.32;99352.19;5081673;28;19946;-61
2023/01/09 00:12:29;;;;;;;;;;;;;;;5.83;97.65;99362.06;5079171;28;19917;-60
2023/01/09 00:14:54;;;;;;;;;;;;;;;5.83;97.62;99343.63;5078960;28;20533;-61
2023/01/09 00:17:19;;;;;;;;;;;;;;;5.82;97.97;99354.34;5073998;28;19916;-62
2023/01/09 00:19:44;;;;;;;;;;;;;;;5.78;97.83;99351.25;5078272;28;20347;-61
2023/01/09 00:22:09;;;;;;;;;;;;;;;5.77;97.76;99356.66;5080023;28;19920;-61
2023/01/09 00:24:35;;;;;;;;;;;;;;;5.74;97.99;99355.19;5089019;28;20268;-59
2023/01/09 00:27:00;;;;;;;;;;;;;;;5.73;97.95;99355.38;5082565;28;20390;-60
2023/01/09 00:29:25;;;;;;;;;;;;;;;5.70;97.75;99367.09;5078086;28;20020;-61
2023/01/09 00:31:51;;;;;;;;;;;;;;;5.67;98.31;99367.44;5074130;28;19926;-58
2023/01/09 00:34:16;;;;;;;;;;;;;;;5.63;98.42;99366.16;5093532;28;19928;-61
2023/01/09 00:36:41;;;;;;;;;;;;;;;5.62;98.57;99361.88;5079897;28;19954;-61
2023/01/09 00:39:06;;;;;;;;;;;;;;;5.60;98.42;99367.34;5073733;28;19999;-64
2023/01/09 00:41:38;;;;;;;;;;;;;;;5.59;98.52;99367.50;5080960;28;19920;-62
2023/01/09 00:44:06;;;;;;;;;;;;;;;5.55;98.73;99363.59;5098520;28;20383;-61
2023/01/09 00:46:33;;;;;;;;;;;;;;;5.51;98.47;99357.84;5081696;28;19916;-60
2023/01/09 00:48:59;;;;;;;;;;;;;;;5.50;98.41;99358.03;5084353;28;20011;-61
2023/01/09 00:51:24;;;;;;;;;;;;;;;5.46;98.48;99352.25;5086798;28;20014;-60
2023/01/09 00:53:50;;;;;;;;;;;;;;;5.45;99.08;99365.59;5087435;28;19916;-60
2023/01/09 00:56:17;;;;;;;;;;;;;;;5.45;99.10;99360.34;5085585;28;20003;-57
2023/01/09 00:58:43;;;;;;;;;;;;;;;5.45;99.08;99355.06;5082752;28;20371;-59
2023/01/09 01:01:08;;;;;;;;;;;;;;;5.42;99.06;99360.69;5083432;28;20011;-62
2023/01/09 01:03:33;;;;;;;;;;;;;;;5.39;98.83;99363.66;5080564;28;20006;-61
2023/01/09 01:08:43;;;;;;;;;;;;;;;5.35;98.83;99367.66;5072232;28;20038;-63
2023/01/09 01:11:09;;;;;;;;;;;;;;;5.32;98.95;99362.72;5079771;28;20402;-64
2023/01/09 01:13:35;;;;;;;;;;;;;;;5.26;99.11;99372.16;5079704;28;19923;-60
2023/01/09 01:16:03;;;;;;;;;;;;;;;5.26;99.29;99380.84;5078747;28;20383;-61
2023/01/09 01:18:28;;;;;;;;;;;;;;;5.25;99.08;99386.28;5085050;28;19916;-58
2023/01/09 01:20:53;;;;;;;;;;;;;;;5.22;99.32;99389.28;5096728;28;19923;-58
2023/01/09 01:23:18;;;;;;;;;;;;;;;5.20;99.35;99397.34;5087652;28;20025;-60
2023/01/09 01:25:44;;;;;;;;;;;;;;;5.22;99.61;99397.16;5088934;28;19924;-61
2023/01/09 01:28:09;;;;;;;;;;;;;;;5.19;99.67;99395.66;5093653;28;19920;-63
2023/01/09 01:30:38;;;;;;;;;;;;;;;5.19;99.41;99392.22;5077474;28;19939;-60
2023/01/09 01:33:03;;;;;;;;;;;;;;;5.17;99.83;99387.13;5083206;28;20387;-61
2023/01/09 01:35:28;;;;;;;;;;;;;;;5.15;99.85;99393.56;5087782;28;19950;-60
2023/01/09 01:37:53;;;;;;;;;;;;;;;5.10;99.46;99394.06;5082982;28;19916;-61
2023/01/09 01:40:19;;;;;;;;;;;;;;;5.04;99.54;99383.41;5082474;28;19920;-60
2023/01/09 01:42:48;;;;;;;;;;;;;;;4.99;99.49;99378.69;5083371;28;20007;-62
2023/01/09 01:45:13;;;;;;;;;;;;;;;4.95;99.43;99378.19;5088299;28;19912;-62
2023/01/09 01:47:41;;;;;;;;;;;;;;;4.92;99.91;99372.47;5081545;28;19921;-60
2023/01/09 01:50:27;;;;;;;;;;;;;;;4.90;99.84;99379.69;5085921;28;19945;-60
2023/01/09 01:52:59;;;;;;;;;;;;;;;4.90;100.00;99384.94;5073465;28;19924;-61
2023/01/09 01:55:25;;;;;;;;;;;;;;;4.87;100.00;99399.25;5090302;28;19920;-60
2023/01/09 01:57:54;;;;;;;;;;;;;;;4.84;100.00;99394.31;5073415;28;20399;-61
2023/01/09 02:00:20;;;;;;;;;;;;;;;4.81;100.00;99399.94;5075717;28;19916;-61
2023/01/09 02:02:45;;;;;;;;;;;;;;;4.78;100.00;99404.72;5076390;28;19966;-59
2023/01/09 02:05:11;;;;;;;;;;;;;;;4.77;100.00;99400.44;5085474;28;19924;-59
2023/01/09 02:07:36;;;;;;;;;;;;;;;4.76;100.00;99397.00;5077735;28;19917;-61
2023/01/09 02:10:01;;;;;;;;;;;;;;;4.76;100.00;99401.44;5085544;28;20407;-60
2023/01/09 02:12:27;;;;;;;;;;;;;;;4.72;100.00;99406.22;5078127;28;19927;-61
2023/01/09 02:15:09;;;;;;;;;;;;;;;4.70;100.00;99408.19;5085438;28;19924;-62
2023/01/09 02:17:40;;;;;;;;;;;;;;;4.70;100.00;99407.38;5079780;28;19916;-60
2023/01/09 02:20:11;;;;;;;;;;;;;;;4.71;100.00;99393.22;5082687;28;19924;-60
2023/01/09 02:22:55;;;;;;;;;;;;;;;4.72;100.00;99406.22;5087026;28;20003;-61
2023/01/09 02:25:35;;;;;;;;;;;;;;;4.72;100.00;99416.72;5078211;28;19924;-61
2023/01/09 02:28:39;;;;;;;;;;;;;;;4.74;100.00;99411.31;5087702;28;19966;-62
2023/01/09 02:31:27;;;;;;;;;;;;;;;4.70;100.00;99412.63;5013093;28;19921;-64
2023/01/09 02:33:58;;;;;;;;;;;;;;;4.68;100.00;99411.97;5001718;28;19999;-61
2023/01/09 02:36:30;;;;;;;;;;;;;;;4.64;100.00;99409.69;5052540;28;19920;-61
2023/01/09 02:39:09;;;;;;;;;;;;;;;4.65;100.00;99402.63;5073350;28;20003;-63
2023/01/09 02:41:37;;;;;;;;;;;;;;;4.64;100.00;99400.97;5081498;28;19913;-61
2023/01/09 02:44:13;;;;;;;;;;;;;;;4.64;100.00;99403.59;5084876;28;20402;-64
2023/01/09 02:46:38;;;;;;;;;;;;;;;4.62;100.00;99401.13;5077718;28;20398;-58
2023/01/09 02:49:04;;;;;;;;;;;;;;;4.61;100.00;99393.41;5084563;28;20548;-61
2023/01/09 02:51:35;;;;;;;;;;;;;;;4.62;100.00;99393.22;5075468;28;19920;-60
2023/01/09 02:54:00;;;;;;;;;;;;;;;4.62;100.00;99393.22;5084647;28;19916;-64
2023/01/09 02:56:28;;;;;;;;;;;;;;;4.62;100.00;99387.16;5073389;28;20516;-61
2023/01/09 02:59:01;;;;;;;;;;;;;;;4.63;100.00;99397.53;5078307;28;19920;-59
2023/01/09 03:01:32;;;;;;;;;;;;;;;4.63;100.00;99381.75;5077471;28;19922;-60
2023/01/09 03:04:18;;;;;;;;;;;;;;;4.62;100.00;99392.41;5079724;28;19925;-61
2023/01/09 03:07:04;;;;;;;;;;;;;;;4.61;100.00;99391.59;5081340;28;19916;-60
2023/01/09 03:09:32;;;;;;;;;;;;;;;4.60;100.00;99389.13;5075995;28;19923;-61
2023/01/09 03:12:01;;;;;;;;;;;;;;;4.58;100.00;99385.84;5084555;28;20512;-58
2023/01/09 03:14:29;;;;;;;;;;;;;;;4.57;100.00;99385.03;5077585;28;20414;-61
2023/01/09 03:16:58;;;;;;;;;;;;;;;4.54;100.00;99384.56;5075169;28;19923;-61
2023/01/09 03:19:26;;;;;;;;;;;;;;;4.51;100.00;99384.88;5083748;28;19919;-61
2023/01/09 03:21:51;;;;;;;;;;;;;;;4.49;100.00;99382.44;5088201;28;19934;-64
2023/01/09 03:24:17;;;;;;;;;;;;;;;4.48;100.00;99393.94;5083654;28;19920;-60
2023/01/09 03:26:42;;;;;;;;;;;;;;;4.44;100.00;99397.88;5085166;28;20467;-62
2023/01/09 03:29:08;;;;;;;;;;;;;;;4.36;100.00;99387.38;5090222;28;19913;-64
2023/01/09 03:31:33;;;;;;;;;;;;;;;4.35;100.00;99401.53;5079741;28;19921;-60
2023/01/09 03:33:58;;;;;;;;;;;;;;;4.31;100.00;99403.63;5084462;28;19916;-63
2023/01/09 03:36:24;;;;;;;;;;;;;;;4.31;100.00;99397.56;5087132;28;20035;-60
2023/01/09 03:38:50;;;;;;;;;;;;;;;4.31;100.00;99395.75;5083834;28;19917;-59
2023/01/09 03:41:15;;;;;;;;;;;;;;;4.32;100.00;99393.94;5087693;28;20303;-58
2023/01/09 03:43:40;;;;;;;;;;;;;;;4.31;100.00;99387.03;5082917;28;20375;-62
2023/01/09 03:46:05;;;;;;;;;;;;;;;4.30;100.00;99394.09;5076945;28;20509;-63
2023/01/09 03:48:31;;;;;;;;;;;;;;;4.29;100.00;99396.91;5084382;28;20027;-62
2023/01/09 03:50:56;;;;;;;;;;;;;;;4.29;100.00;99391.66;5088337;28;20290;-59
2023/01/09 03:53:22;;;;;;;;;;;;;;;4.31;100.00;99392.28;5084216;28;19919;-61
2023/01/09 03:55:49;;;;;;;;;;;;;;;4.34;100.00;99392.81;5082139;28;20011;-58
2023/01/09 03:58:14;;;;;;;;;;;;;;;4.36;100.00;99387.38;5079821;28;19950;-60
2023/01/09 04:00:40;;;;;;;;;;;;;;;4.40;100.00;99388.69;5083303;28;19916;-59
2023/01/09 04:03:06;;;;;;;;;;;;;;;4.43;100.00;99382.28;5078394;28;20303;-63
2023/01/09 04:05:31;;;;;;;;;;;;;;;4.44;100.00;99387.38;5079360;28;19927;-61
2023/01/09 04:07:56;;;;;;;;;;;;;;;4.47;100.00;99383.59;5079533;28;20011;-59
2023/01/09 04:10:22;;;;;;;;;;;;;;;4.47;100.00;99387.03;5083276;28;20367;-60
2023/01/09 04:12:47;;;;;;;;;;;;;;;4.48;100.00;99390.47;5098090;28;19941;-61
2023/01/09 04:15:12;;;;;;;;;;;;;;;4.49;100.00;99389.50;5087863;28;19920;-60
2023/01/09 04:17:37;;;;;;;;;;;;;;;4.51;100.00;99390.97;5082426;28;19916;-61
2023/01/09 04:20:03;;;;;;;;;;;;;;;4.51;100.00;99388.34;5076361;28;19930;-59
2023/01/09 04:22:30;;;;;;;;;;;;;;;4.55;100.00;99389.63;5076988;28;19921;-60
2023/01/09 04:24:55;;;;;;;;;;;;;;;4.59;100.00;99379.59;5086170;28;20010;-58
2023/01/09 04:27:20;;;;;;;;;;;;;;;4.62;100.00;99381.88;5091641;28;20039;-60
2023/01/09 04:29:45;;;;;;;;;;;;;;;4.62;100.00;99382.72;5085266;28;20395;-58
2023/01/09 04:32:10;;;;;;;;;;;;;;;4.69;100.00;99377.63;5077738;28;19947;-60
2023/01/09 04:34:36;;;;;;;;;;;;;;;4.74;100.00;99388.44;5077478;28;20658;-61
2023/01/09 04:37:01;;;;;;;;;;;;;;;4.78;100.00;99391.56;5081032;28;20123;-60
2023/01/09 04:39:26;;;;;;;;;;;;;;;4.84;100.00;99396.13;5086152;28;20003;-61
2023/01/09 04:41:51;;;;;;;;;;;;;;;4.92;100.00;99382.97;5091221;28;19998;-58
2023/01/09 04:44:18;;;;;;;;;;;;;;;4.97;100.00;99386.75;5081692;28;20337;-60
2023/01/09 04:46:43;;;;;;;;;;;;;;;5.01;100.00;99387.22;5073532;28;19952;-63
2023/01/09 04:49:08;;;;;;;;;;;;;;;5.03;100.00;99389.69;5079371;28;20422;-61
2023/01/09 04:51:34;;;;;;;;;;;;;;;5.06;100.00;99381.44;5082935;28;20291;-58
2023/01/09 04:53:59;;;;;;;;;;;;;;;5.10;100.00;99385.38;5086995;28;19956;-58
2023/01/09 04:56:24;;;;;;;;;;;;;;;5.13;100.00;99379.75;5079849;28;19920;-62
2023/01/09 04:58:49;;;;;;;;;;;;;;;5.16;100.00;99384.66;5081716;28;19916;-60
2023/01/09 05:01:14;;;;;;;;;;;;;;;5.20;100.00;99388.59;5078924;28;19917;-60
2023/01/09 05:03:40;;;;;;;;;;;;;;;5.24;100.00;99379.41;5079975;28;19965;-60
2023/01/09 05:06:05;;;;;;;;;;;;;;;5.26;100.00;99380.03;5080411;28;19942;-60
2023/01/09 05:08:30;;;;;;;;;;;;;;;5.27;100.00;99381.69;5085156;28;19919;-60
2023/01/09 05:10:55;;;;;;;;;;;;;;;5.31;100.00;99376.88;5086660;28;19923;-59
2023/01/09 05:13:20;;;;;;;;;;;;;;;5.33;100.00;99367.81;5082437;28;19985;-61
2023/01/09 05:15:46;;;;;;;;;;;;;;;5.37;99.57;99371.75;5077364;28;20505;-60
2023/01/09 05:18:11;;;;;;;;;;;;;;;5.39;99.41;99369.75;5099393;28;19916;-60
2023/01/09 05:20:36;;;;;;;;;;;;;;;5.42;99.16;99379.13;5082934;28;20410;-58
2023/01/09 05:23:01;;;;;;;;;;;;;;;5.42;99.32;99374.66;5083738;28;19919;-61
2023/01/09 05:25:26;;;;;;;;;;;;;;;5.44;98.85;99379.75;5082102;28;19955;-62
2023/01/09 05:27:52;;;;;;;;;;;;;;;5.47;98.77;99382.88;5079048;28;20381;-61
2023/01/09 05:30:17;;;;;;;;;;;;;;;5.49;98.73;99375.63;5082397;28;19928;-61
2023/01/09 05:32:42;;;;;;;;;;;;;;;5.54;98.55;99383.84;5082535;28;19965;-60
2023/01/09 05:35:08;;;;;;;;;;;;;;;5.56;98.63;99384.47;5076252;28;19932;-61
2023/01/09 05:37:33;;;;;;;;;;;;;;;5.63;98.02;99373.25;5088727;28;19942;-60
2023/01/09 05:39:58;;;;;;;;;;;;;;;5.66;98.07;99376.34;5088241;28;20002;-59
2023/01/09 05:42:23;;;;;;;;;;;;;;;5.69;97.93;99381.25;5089379;28;19957;-60
2023/01/09 05:44:48;;;;;;;;;;;;;;;5.73;97.72;99377.28;5077770;28;19959;-61
2023/01/09 05:47:13;;;;;;;;;;;;;;;5.78;97.38;99387.28;5079039;28;19916;-60
2023/01/09 05:49:39;;;;;;;;;;;;;;;5.83;96.79;99372.63;5076387;28;19921;-59
2023/01/09 05:52:04;;;;;;;;;;;;;;;5.87;96.58;99376.53;5087449;28;19969;-60
2023/01/09 05:54:29;;;;;;;;;;;;;;;5.91;96.42;99361.22;5080963;28;20376;-60
2023/01/09 05:56:54;;;;;;;;;;;;;;;5.92;96.24;99362.03;5092695;28;20505;-59
2023/01/09 05:59:19;;;;;;;;;;;;;;;5.96;96.22;99365.94;5078202;28;19958;-63
2023/01/09 06:01:44;;;;;;;;;;;;;;;5.96;96.44;99364.13;5082923;28;19920;-61
2023/01/09 06:04:10;;;;;;;;;;;;;;;6.01;96.09;99363.59;5077108;28;20307;-61
2023/01/09 06:06:35;;;;;;;;;;;;;;;6.04;95.62;99368.50;5087213;28;19943;-58
2023/01/09 06:09:02;;;;;;;;;;;;;;;6.04;95.76;99366.69;5085916;28;20427;-63
2023/01/09 06:11:27;;;;;;;;;;;;;;;6.05;95.84;99370.16;5081553;28;19920;-61
2023/01/09 06:13:52;;;;;;;;;;;;;;;6.05;95.81;99357.78;5074347;28;19950;-61
2023/01/09 06:16:17;;;;;;;;;;;;;;;6.06;95.66;99358.59;5078795;28;20569;-61
2023/01/09 06:18:43;;;;;;;;;;;;;;;6.06;95.86;99361.25;5081223;28;19927;-61
2023/01/09 06:21:08;;;;;;;;;;;;;;;6.06;95.50;99355.97;5095545;28;19920;-60
2023/01/09 06:23:33;;;;;;;;;;;;;;;6.05;95.90;99359.59;5072933;28;19917;-60
2023/01/09 06:25:58;;;;;;;;;;;;;;;6.02;95.90;99357.31;5078375;28;19923;-61
2023/01/09 06:28:23;;;;;;;;;;;;;;;5.97;96.12;99338.59;5075560;28;21063;-60
2023/01/09 06:30:49;;;;;;;;;;;;;;;6.03;96.42;99356.34;5077771;28;19916;-59
2023/01/09 06:33:15;;;;;;;;;;;;;;;6.05;96.35;99354.34;5078646;28;19916;-62
2023/01/09 06:35:40;;;;;;;;;;;;;;;6.06;96.06;99355.97;5076158;28;20278;-61
2023/01/09 06:38:05;;;;;;;;;;;;;;;6.08;96.33;99354.00;5069753;28;19916;-60
2023/01/09 06:40:30;;;;;;;;;;;;;;;6.10;95.83;99359.91;5074137;28;20039;-61
2023/01/09 06:42:55;;;;;;;;;;;;;;;6.13;96.01;99363.00;5070120;28;19944;-64
2023/01/09 06:45:20;;;;;;;;;;;;;;;6.15;95.86;99360.19;5072813;28;19916;-58
2023/01/09 06:47:47;;;;;;;;;;;;;;;6.19;95.54;99356.19;5070414;28;19962;-61
2023/01/09 06:50:12;;;;;;;;;;;;;;;6.22;95.07;99359.28;5068881;28;19920;-59
2023/01/09 06:52:38;;;;;;;;;;;;;;;6.28;94.83;99357.75;5068377;28;20405;-58
2023/01/09 06:55:03;;;;;;;;;;;;;;;6.32;94.48;99374.84;5075116;28;19928;-61
2023/01/09 06:57:29;;;;;;;;;;;;;;;6.21;94.83;99359.47;5080104;28;19937;-63
2023/01/09 06:59:54;;;;;;;;;;;;;;;6.04;95.85;99374.59;5081333;28;20291;-60
2023/01/09 07:02:20;;;;;;;;;;;;;;;5.92;97.05;99375.22;5073144;28;19916;-61
2023/01/09 07:04:45;;;;;;;;;;;;;;;5.83;97.91;99367.34;5086541;28;19920;-60
2023/01/09 07:07:11;;;;;;;;;;;;;;;5.79;98.57;99371.31;5081491;28;19969;-62
2023/01/09 07:09:36;;;;;;;;;;;;;;;5.79;98.85;99376.59;5073533;28;19962;-62
2023/01/09 07:12:01;;;;;;;;;;;;;;;5.79;99.36;99378.41;5085219;28;19916;-61
2023/01/09 07:14:26;;;;;;;;;;;;;;;5.80;99.47;99369.50;5084868;28;20036;-60
2023/01/09 07:16:51;;;;;;;;;;;;;;;5.84;99.62;99382.16;5077791;28;20453;-60
2023/01/09 07:19:17;;;;;;;;;;;;;;;5.90;99.19;99375.38;5076322;28;19955;-60
2023/01/09 07:21:42;;;;;;;;;;;;;;;6.00;99.13;99385.69;5080952;28;19920;-61
2023/01/09 07:24:07;;;;;;;;;;;;;;;6.09;98.73;99392.53;5079195;28;19947;-61
2023/01/09 07:26:32;;;;;;;;;;;;;;;6.17;98.18;99385.38;5076012;28;20610;-60
2023/01/09 07:28:57;;;;;;;;;;;;;;;6.18;98.10;99394.09;5079694;28;19931;-60
2023/01/09 07:31:22;;;;;;;;;;;;;;;6.18;97.80;99405.47;5082264;28;20349;-61
2023/01/09 07:33:48;;;;;;;;;;;;;;;6.19;97.30;99414.19;5084696;28;19916;-61
2023/01/09 07:36:13;;;;;;;;;;;;;;;6.19;97.33;99433.47;5098678;28;19920;-58
2023/01/09 07:38:38;;;;;;;;;;;;;;;6.16;97.32;99422.44;5079885;28;19917;-60
2023/01/09 07:41:04;;;;;;;;;;;;;;;6.13;97.39;99426.28;5088266;28;19916;-60
2023/01/09 07:43:29;;;;;;;;;;;;;;;6.09;97.73;99429.44;5083532;28;19916;-61
2023/01/09 07:45:54;;;;;;;;;;;;;;;6.02;98.32;99417.94;5086244;28;19916;-61
2023/01/09 07:48:19;;;;;;;;;;;;;;;5.98;98.49;99433.28;5084874;28;19959;-60
2023/01/09 07:50:45;;;;;;;;;;;;;;;5.97;99.14;99436.91;5086565;28;19931;-61
2023/01/09 07:53:10;;;;;;;;;;;;;;;5.92;99.45;99438.44;5072198;28;19926;-59
2023/01/09 07:55:35;;;;;;;;;;;;;;;5.89;99.45;99440.44;5073404;28;19920;-61
2023/01/09 07:58:00;;;;;;;;;;;;;;;5.88;100.00;99446.66;5076314;28;20300;-61
2023/01/09 08:00:25;;;;;;;;;;;;;;;5.94;100.00;99444.34;5075466;28;20330;-60
2023/01/09 08:02:52;;;;;;;;;;;;;;;5.97;100.00;99459.81;5087845;28;19923;-60
2023/01/09 08:05:17;;;;;;;;;;;;;;;5.99;99.96;99476.25;5081654;28;20165;-60
2023/01/09 08:07:44;;;;;;;;;;;;;;;5.95;99.99;99459.16;5078387;28;22352;-60
2023/01/09 08:10:10;;;;;;;;;;;;;;;5.94;100.00;99468.06;5080164;28;19923;-61
2023/01/09 08:12:35;;;;;;;;;;;;;;;5.95;100.00;99474.97;5083706;28;20580;-61
2023/01/09 08:15:01;;;;;;;;;;;;;;;5.97;100.00;99472.97;5088161;28;20461;-58
2023/01/09 08:17:26;;;;;;;;;;;;;;;5.97;100.00;99475.63;5084137;28;20361;-60
2023/01/09 08:19:51;;;;;;;;;;;;;;;5.97;100.00;99478.25;5099553;28;19954;-61
2023/01/09 08:22:16;;;;;;;;;;;;;;;5.96;100.00;99485.34;5089752;28;19960;-62
2023/01/09 08:24:41;;;;;;;;;;;;;;;5.94;100.00;99499.69;5084429;28;19916;-58
2023/01/09 08:27:06;;;;;;;;;;;;;;;5.98;100.00;99493.06;5088039;28;19916;-61
2023/01/09 08:29:32;;;;;;;;;;;;;;;5.93;100.00;99498.03;5084501;28;20409;-61
2023/01/09 08:31:57;;;;;;;;;;;;;;;6.01;100.00;99514.63;5084703;28;19955;-61
2023/01/09 08:34:22;;;;;;;;;;;;;;;6.05;100.00;99515.91;5089944;28;19916;-60
2023/01/09 08:36:47;;;;;;;;;;;;;;;6.09;100.00;99525.13;5098577;28;19919;-59
2023/01/09 08:39:13;;;;;;;;;;;;;;;5.99;100.00;99521.06;5084020;28;19923;-61
2023/01/09 08:47:06;;;;;;;;;;;;;;;5.83;100.00;99553.56;5083393;28;19923;-61
2023/01/09 08:49:32;;;;;;;;;;;;;;;5.77;100.00;99549.78;5087538;28;19916;-59
2023/01/09 08:51:57;;;;;;;;;;;;;;;5.71;100.00;99552.28;5085147;28;19919;-61
2023/01/09 08:54:22;;;;;;;;;;;;;;;5.68;100.00;99563.97;5081553;28;19999;-61
2023/01/09 08:56:48;;;;;;;;;;;;;;;5.64;100.00;99559.22;5086644;28;19916;-61
2023/01/09 08:59:14;;;;;;;;;;;;;;;5.59;100.00;99567.63;5088763;28;19923;-61
2023/01/09 09:01:39;;;;;;;;;;;;;;;5.56;100.00;99563.53;5089952;28;20007;-61
2023/01/09 09:04:04;;;;;;;;;;;;;;;5.56;100.00;99570.63;5086582;28;19916;-61
2023/01/09 09:06:30;;;;;;;;;;;;;;;5.56;100.00;99581.16;5084373;28;20591;-61
2023/01/09 09:08:56;;;;;;;;;;;;;;;5.54;100.00;99583.94;5083801;28;19916;-61
2023/01/09 09:11:21;;;;;;;;;;;;;;;5.55;100.00;99579.50;5081363;28;20406;-62
2023/01/09 09:13:46;;;;;;;;;;;;;;;5.54;100.00;99580.50;5081226;28;19916;-62
2023/01/09 09:16:11;;;;;;;;;;;;;;;5.54;100.00;99586.59;5082895;28;19927;-61
2023/01/09 09:18:36;;;;;;;;;;;;;;;5.56;100.00;99605.66;5077250;28;19913;-61
2023/01/09 09:21:02;;;;;;;;;;;;;;;5.58;100.00;99608.94;5082465;28;19923;-61
2023/01/09 09:23:27;;;;;;;;;;;;;;;5.59;100.00;99602.69;5075736;28;19913;-61
2023/01/09 09:25:52;;;;;;;;;;;;;;;5.65;100.00;99618.81;5088228;28;19916;-61
2023/01/09 09:28:17;;;;;;;;;;;;;;;5.67;100.00;99615.00;5093958;28;19994;-63
2023/01/09 09:30:42;;;;;;;;;;;;;;;5.70;100.00;99625.19;5079696;28;19920;-61
2023/01/09 09:33:07;;;;;;;;;;;;;;;5.71;100.00;99633.94;5087270;28;19916;-62
2023/01/09 09:35:33;;;;;;;;;;;;;;;5.71;100.00;99637.38;5086958;28;20391;-61
2023/01/09 09:37:59;;;;;;;;;;;;;;;5.76;100.00;99639.50;5085352;28;19924;-62
2023/01/09 09:40:36;;;;;;;;;;;;;;;5.75;100.00;99653.66;5090809;28;20007;-61
2023/01/09 09:46:06;;;;;;;;;;;;;;;5.75;100.00;99658.94;5088246;28;20046;-61
2023/01/09 09:48:36;;;;;;;;;;;;;;;5.75;100.00;99662.38;5087915;28;20015;-61
2023/01/09 09:51:10;;;;;;;;;;;;;;;5.75;100.00;99665.03;5078666;28;19912;-60
2023/01/09 09:53:38;;;;;;;;;;;;;;;5.80;100.00;99677.72;5084032;28;19912;-61
2023/01/09 09:56:04;;;;;;;;;;;;;;;5.82;100.00;99684.47;5080594;28;20007;-61
2023/01/09 09:58:37;;;;;;;;;;;;;;;5.88;100.00;99686.41;5083382;28;19994;-61
2023/01/09 10:01:03;;;;;;;;;;;;;;;5.96;100.00;99684.78;5083197;28;20003;-61
2023/01/09 10:03:37;;;;;;;;;;;;;;;6.01;100.00;99691.19;5083000;28;20019;-61
2023/01/09 10:06:15;;;;;;;;;;;;;;;6.14;100.00;99696.75;5082945;28;19920;-61
2023/01/09 10:08:47;;;;;;;;;;;;;;;6.25;100.00;99703.44;5084504;28;19912;-62
2023/01/09 10:11:19;;;;;;;;;;;;;;;6.35;100.00;99719.06;5077089;28;20384;-61
2023/01/09 10:16:31;;;;;;;;;;;;;;;6.44;100.00;99715.41;5085878;28;20362;-61
2023/01/09 10:19:02;;;;;;;;;;;;;;;6.46;100.00;99726.63;5077883;28;20301;-61
2023/01/09 10:21:33;;;;;;;;;;;;;;;6.50;100.00;99738.47;5090831;28;19920;-62
2023/01/09 10:23:58;;;;;;;;;;;;;;;6.57;100.00;99720.13;5080697;28;19912;-61
2023/01/09 10:26:29;;;;;;;;;;;;;;;6.63;100.00;99727.34;5083744;28;19923;-62
2023/01/09 10:29:13;;;;;;;;;;;;;;;6.62;100.00;99733.63;5087014;28;20006;-61
2023/01/09 10:31:53;;;;;;;;;;;;;;;6.62;100.00;99741.53;5073629;28;19970;-61
2023/01/09 10:34:43;;;;;;;;;;;;;;;6.64;100.00;99742.19;5079632;28;20393;-62
2023/01/09 10:37:12;;;;;;;;;;;;;;;6.65;100.00;99739.41;5077308;28;20413;-61
2023/01/09 10:39:40;;;;;;;;;;;;;;;6.58;100.00;99748.97;5085709;28;19920;-61
2023/01/09 10:42:05;;;;;;;;;;;;;;;6.55;100.00;99772.25;5078438;28;19916;-62
2023/01/09 10:44:37;;;;;;;;;;;;;;;6.31;100.00;99752.84;5080644;28;19962;-61
2023/01/09 10:47:04;;;;;;;;;;;;;;;6.19;100.00;99762.13;5078699;28;19966;-61
2023/01/09 10:49:29;;;;;;;;;;;;;;;6.11;100.00;99756.91;5078195;28;20001;-61
2023/01/09 10:52:00;;;;;;;;;;;;;;;6.10;100.00;99768.44;5084900;28;20004;-61
2023/01/09 10:54:27;;;;;;;;;;;;;;;6.13;100.00;99781.25;5073528;28;20406;-62
2023/01/09 10:56:59;;;;;;;;;;;;;;;6.20;100.00;99769.06;5071774;28;21585;-61
2023/01/09 10:59:25;;;;;;;;;;;;;;;6.21;100.00;99782.06;5073653;28;19924;-60
2023/01/09 11:01:50;;;;;;;;;;;;;;;6.22;100.00;99782.88;5078915;28;19916;-62
2023/01/09 11:04:24;;;;;;;;;;;;;;;6.31;100.00;99779.22;5074721;28;20427;-61
2023/01/09 11:06:51;;;;;;;;;;;;;;;6.37;100.00;99789.13;5074770;28;19916;-60
2023/01/09 11:09:17;;;;;;;;;;;;;;;6.58;100.00;99785.91;5077837;28;19924;-61
2023/01/09 11:11:44;;;;;;;;;;;;;;;6.69;100.00;99790.00;5076622;28;20011;-61
2023/01/09 11:14:14;;;;;;;;;;;;;;;6.75;100.00;99789.31;5077327;28;20366;-60
2023/01/09 11:16:56;;;;;;;;;;;;;;;6.73;100.00;99786.03;5079605;28;19920;-61
2023/01/09 11:19:22;;;;;;;;;;;;;;;6.76;100.00;99791.78;5079176;28;19920;-61
2023/01/09 11:21:48;;;;;;;;;;;;;;;6.79;100.00;99790.59;5090987;28;19939;-61
2023/01/09 11:24:22;;;;;;;;;;;;;;;6.78;100.00;99799.53;5084343;28;20372;-61
2023/01/09 11:26:49;;;;;;;;;;;;;;;6.82;100.00;99793.72;5078368;28;20486;-63
2023/01/09 11:29:18;;;;;;;;;;;;;;;6.84;100.00;99804.94;5084174;28;19920;-61
2023/01/09 11:31:54;;;;;;;;;;;;;;;6.91;100.00;99798.94;5082625;28;19916;-62
2023/01/09 11:34:24;;;;;;;;;;;;;;;6.95;100.00;99795.81;5078353;28;19912;-62
2023/01/09 11:36:51;;;;;;;;;;;;;;;7.08;100.00;99817.19;5084557;28;19921;-63
2023/01/09 11:39:27;;;;;;;;;;;;;;;7.19;100.00;99815.13;5080903;28;20011;-61
2023/01/09 11:41:54;;;;;;;;;;;;;;;7.21;99.50;99810.50;5068446;28;20173;-61
2023/01/09 11:44:19;;;;;;;;;;;;;;;7.17;99.17;99819.78;5079663;28;19920;-61
2023/01/09 11:46:45;;;;;;;;;;;;;;;7.21;99.09;99821.06;5079138;28;19975;-61
2023/01/09 11:49:13;;;;;;;;;;;;;;;7.15;99.35;99820.78;5084101;28;19923;-61
2023/01/09 11:51:38;;;;;;;;;;;;;;;7.04;99.07;99817.72;5077333;28;19969;-61
2023/01/09 11:54:03;;;;;;;;;;;;;;;7.01;99.05;99826.81;5077438;28;19916;-61
2023/01/09 11:56:29;;;;;;;;;;;;;;;7.07;99.19;99828.75;5072936;28;20315;-59
2023/01/09 11:58:54;;;;;;;;;;;;;;;7.10;99.74;99830.22;5085600;28;20349;-59
2023/01/09 12:01:38;;;;;;;;;;;;;;;7.11;99.96;99823.94;5080114;28;19966;-61
2023/01/09 12:04:22;;;;;;;;;;;;;;;7.18;100.00;99826.69;5088305;28;19913;-61
2023/01/09 12:06:50;;;;;;;;;;;;;;;7.30;100.00;99818.22;5082866;28;20399;-60
2023/01/09 12:09:34;;;;;;;;;;;;;;;7.37;100.00;99826.28;5073850;28;19955;-60
2023/01/09 12:12:03;;;;;;;;;;;;;;;7.44;100.00;99828.03;5078963;28;19916;-60
2023/01/09 12:14:34;;;;;;;;;;;;;;;7.43;99.49;99829.03;5081571;28;20383;-61
2023/01/09 12:17:15;;;;;;;;;;;;;;;7.37;99.16;99826.28;5080823;28;20391;-61
2023/01/09 12:19:53;;;;;;;;;;;;;;;7.34;98.86;99840.66;5081806;28;19928;-61
2023/01/09 12:22:27;;;;;;;;;;;;;;;7.37;98.64;99836.84;5080745;28;20442;-62
2023/01/09 12:25:11;;;;;;;;;;;;;;;7.33;99.23;99835.53;5084759;28;19935;-60
2023/01/09 12:27:39;;;;;;;;;;;;;;;7.28;99.32;99840.53;5079048;28;19928;-61
2023/01/09 12:30:27;;;;;;;;;;;;;;;7.31;98.65;99837.53;5083097;28;20473;-61
2023/01/09 12:33:31;;;;;;;;;;;;;;;7.24;98.52;99847.97;5084471;28;20047;-61
2023/01/09 12:36:16;;;;;;;;;;;;;;;7.17;98.65;99839.06;5029114;28;19925;-62
2023/01/09 12:38:52;;;;;;;;;;;;;;;7.05;98.56;99837.84;5036182;28;20011;-61
2023/01/09 12:41:32;;;;;;;;;;;;;;;7.01;98.77;99837.34;5067373;28;20031;-61
2023/01/09 12:44:07;;;;;;;;;;;;;;;7.12;100.00;99830.84;5087419;28;19922;-61
2023/01/09 12:46:43;;;;;;;;;;;;;;;7.26;100.00;99842.53;5076913;28;19960;-62
2023/01/09 12:49:23;;;;;;;;;;;;;;;7.37;100.00;99847.41;5078610;28;20006;-61
2023/01/09 12:52:06;;;;;;;;;;;;;;;7.40;99.46;99862.91;5086796;28;19919;-60
2023/01/09 12:54:38;;;;;;;;;;;;;;;7.49;98.53;99855.72;5085596;28;20011;-61
2023/01/09 12:57:24;;;;;;;;;;;;;;;7.47;98.68;99854.09;5081659;28;19920;-61
2023/01/09 12:59:51;;;;;;;;;;;;;;;7.42;97.71;99860.91;5080310;28;19939;-62
2023/01/09 13:02:16;;;;;;;;;;;;;;;7.44;97.72;99869.47;5085996;28;19923;-61
2023/01/09 13:04:47;;;;;;;;;;;;;;;7.39;97.83;99869.16;5089760;28;19912;-61
2023/01/09 13:07:19;;;;;;;;;;;;;;;7.42;97.56;99866.19;5079514;28;19919;-61